Impacts TAF Board
For situational awareness. Not to be used for flight planning purposes.
IDs:

KFLL - Ft Lauderdale-Hollyw, FL, US

Issued at 2341 UTC 19 Jan 2019
Updated at 2346 UTC 19 Jan 2019
Potential Impact None Slight Moderate High
Time2253Z 20/00Z 20/01Z 20/02Z 20/03Z 20/04Z 20/05Z 20/06Z 20/07Z 20/08Z 20/09Z 20/10Z 20/11Z 20/12Z>>
Type OBS PRVL PRVL PRVL PRVL PRVL PRVL PRVL PRVL PRVL PRVL PRVL PRVL PRVL
VIS 10 >6 >6 >6 >6 >6 >6 >6 >6 >6 >6 >6 >6 >6
CIG -- 200 200 200 200 200 200 200 200 200 200 200 80 80
Cover CLR BKN BKN BKN BKN BKN BKN BKN BKN BKN BKN BKN OVC OVC
FltCat VFR VFR VFR VFR VFR VFR VFR VFR VFR VFR VFR VFR VFR VFR
WX -- -- -- -- -- -- -- -- -- -- -- -- VCSH VCSH
WDir 170 170 170 170 170 170 170 170 170 170 170 170 210 210
WSpd 8 7 7 7 7 7 7 7 7 7 7 7 10 10
WGst -- -- -- -- -- -- -- -- -- -- -- -- -- --
Raw TAF
KFLL 192341Z 2000/2106 17007KT P6SM SCT035 BKN200
  FM201100 21010KT P6SM VCSH SCT035 OVC080
  FM201500 26013KT P6SM VCSH SCT025 BKN050
  FM201900 29015G25KT P6SM SCT040


Raw METAR
KFLL 192253Z AUTO 17008KT 10SM CLR 23/16 A2996 RMK AO2 SLP144 T02280161
KFLL 192153Z AUTO 16013KT 10SM CLR 24/16 A2996 RMK AO2 SLP146 T02390161
KFLL 192053Z AUTO 16012KT 10SM CLR 24/16 A2998 RMK AO2 SLP150 T02440161 56015

METAR Board
Radar Display
Forecast Discussion
For situational awareness. Not to be used for flight planning purposes.